createdAt,value
2023-01-31T00:04:32.750Z,10.40
2023-01-31T00:09:35.403Z,14.20
2023-01-31T00:14:39.771Z,15.67
2023-01-31T00:19:42.525Z,11.67
2023-01-31T00:24:45.167Z,14.40
2023-01-31T00:29:49.105Z,20.13
2023-01-31T00:34:51.774Z,18.57
2023-01-31T00:39:54.423Z,17.47
2023-01-31T00:44:58.390Z,12.43
2023-01-31T00:50:01.432Z,17.17
2023-01-31T00:55:04.243Z,8.93
2023-01-31T01:00:09.932Z,15.43
2023-01-31T01:05:12.795Z,10.50
2023-01-31T01:10:15.483Z,8.30
2023-01-31T01:15:19.787Z,8.57
2023-01-31T01:20:22.561Z,13.23
2023-01-31T01:25:25.209Z,12.83
2023-01-31T01:30:29.187Z,6.43
2023-01-31T01:35:32.139Z,7.43
2023-01-31T01:40:38.541Z,6.30
2023-01-31T01:45:42.856Z,5.73
2023-01-31T01:50:49.535Z,7.30
2023-01-31T01:55:56.120Z,18.37
2023-01-31T02:01:00.474Z,10.17
2023-01-31T02:06:06.540Z,9.33
2023-01-31T02:11:14.412Z,12.47
2023-01-31T02:16:18.830Z,15.00
2023-01-31T02:22:02.567Z,15.50
2023-01-31T02:27:24.497Z,18.40
2023-01-31T02:32:47.720Z,12.63
2023-01-31T02:38:01.591Z,16.73
2023-01-31T02:43:10.009Z,19.93
2023-01-31T02:48:20.359Z,14.17
2023-01-31T02:53:26.951Z,17.30
2023-01-31T02:58:33.101Z,9.57
2023-01-31T03:03:39.064Z,12.80
2023-01-31T03:08:45.249Z,14.87
2023-01-31T03:13:54.491Z,11.60
2023-01-31T03:19:13.635Z,18.60
2023-01-31T03:24:18.358Z,20.57
2023-01-31T03:29:21.444Z,9.27
2023-01-31T03:34:27.023Z,17.27
2023-01-31T03:39:38.601Z,16.17
2023-01-31T03:44:47.016Z,19.70
2023-01-31T03:49:53.493Z,17.70
2023-01-31T03:55:01.266Z,13.10
2023-01-31T04:00:07.396Z,11.77
2023-01-31T04:05:14.850Z,8.47
2023-01-31T04:10:19.848Z,8.87
2023-01-31T04:15:23.012Z,11.73
2023-01-31T04:20:27.062Z,8.73
2023-01-31T04:25:31.814Z,6.10
2023-01-31T04:30:35.452Z,7.53
2023-01-31T04:35:42.010Z,15.70
2023-01-31T04:40:44.638Z,14.03
2023-01-31T04:45:47.277Z,13.70
2023-01-31T04:50:51.303Z,9.27
2023-01-31T04:55:55.167Z,18.30
2023-01-31T05:00:57.900Z,14.40
2023-01-31T05:06:01.917Z,16.20
2023-01-31T05:11:05.723Z,16.87
2023-01-31T05:16:10.620Z,16.03
2023-01-31T05:21:14.630Z,17.03
2023-01-31T05:26:17.403Z,9.97
2023-01-31T05:31:20.147Z,22.60
2023-01-31T05:36:24.126Z,15.97
2023-01-31T05:41:26.765Z,18.33
2023-01-31T05:46:29.439Z,15.87
2023-01-31T05:51:33.440Z,10.13
2023-01-31T05:56:36.203Z,13.63
2023-01-31T06:01:38.840Z,24.13
2023-01-31T06:06:42.828Z,15.93
2023-01-31T06:11:45.554Z,17.80
2023-01-31T06:16:48.319Z,16.43
2023-01-31T06:21:52.565Z,15.37
2023-01-31T06:26:55.271Z,14.43
2023-01-31T06:31:57.962Z,10.70
2023-01-31T06:37:01.964Z,16.93
2023-01-31T06:42:05.111Z,16.97
2023-01-31T06:47:07.764Z,13.47
2023-01-31T06:52:14.101Z,13.93
2023-01-31T06:57:17.625Z,10.30
2023-01-31T07:02:20.407Z,13.77
2023-01-31T07:07:24.398Z,11.90
2023-01-31T07:12:27.824Z,13.17
2023-01-31T07:17:30.570Z,9.63
2023-01-31T07:22:34.912Z,14.00
2023-01-31T07:27:37.556Z,11.67
2023-01-31T07:32:40.548Z,17.23
2023-01-31T07:37:44.541Z,12.70
2023-01-31T07:42:47.443Z,16.87
2023-01-31T07:47:50.109Z,18.03
2023-01-31T07:52:54.085Z,17.13
2023-01-31T07:57:56.705Z,11.03
2023-01-31T08:03:17.164Z,9.27
2023-01-31T08:08:21.174Z,8.83
2023-01-31T08:13:26.733Z,14.30
2023-01-31T08:18:29.584Z,11.03
2023-01-31T08:23:33.996Z,10.07
2023-01-31T08:28:37.002Z,13.97
2023-01-31T08:33:39.648Z,11.90
2023-01-31T08:38:44.659Z,11.30
2023-01-31T08:43:57.902Z,12.60
2023-01-31T08:49:02.549Z,14.70
2023-01-31T08:54:06.672Z,9.13
2023-01-31T08:59:09.459Z,6.63
2023-01-31T09:04:12.780Z,9.00
2023-01-31T09:09:16.809Z,9.33
2023-01-31T09:14:19.715Z,7.77
2023-01-31T09:19:23.460Z,8.20
2023-01-31T09:24:27.772Z,10.97
2023-01-31T09:29:30.898Z,17.80
2023-01-31T09:34:33.586Z,10.37
2023-01-31T09:39:37.566Z,8.57
2023-01-31T09:44:43.196Z,6.20
2023-01-31T09:49:50.841Z,11.10
2023-01-31T09:54:55.025Z,11.97
2023-01-31T10:00:05.761Z,9.37
2023-01-31T10:05:20.653Z,10.53
2023-01-31T10:10:31.227Z,8.70
2023-01-31T10:15:40.426Z,10.40
2023-01-31T10:20:49.071Z,11.27
2023-01-31T10:25:58.241Z,15.77
2023-01-31T10:31:06.226Z,12.03
2023-01-31T10:36:17.167Z,9.27
2023-01-31T10:41:31.248Z,8.63
2023-01-31T10:46:34.214Z,6.83
2023-01-31T10:51:48.784Z,8.50
2023-01-31T10:56:52.983Z,8.80
2023-01-31T11:01:55.695Z,6.93
2023-01-31T11:07:00.533Z,10.40
2023-01-31T11:12:07.142Z,10.30
2023-01-31T11:17:16.400Z,10.03
2023-01-31T11:22:25.379Z,6.83
2023-01-31T11:27:36.917Z,8.57
2023-01-31T11:32:39.679Z,10.43
2023-01-31T11:37:54.059Z,9.13
2023-01-31T11:43:00.154Z,10.43
2023-01-31T11:48:12.110Z,11.23
2023-01-31T11:53:19.529Z,9.80
2023-01-31T11:58:27.397Z,7.73
2023-01-31T12:03:31.481Z,10.07
2023-01-31T12:08:37.017Z,8.73
2023-01-31T12:13:49.029Z,9.77
2023-01-31T12:19:02.201Z,9.53
2023-01-31T12:24:13.708Z,10.17
2023-01-31T12:29:50.019Z,6.37
2023-01-31T12:35:11.785Z,8.63
2023-01-31T12:40:38.901Z,11.03
2023-01-31T12:45:54.771Z,8.37
2023-01-31T12:51:06.097Z,10.47
2023-01-31T12:56:25.451Z,12.93
2023-01-31T13:01:38.158Z,10.33
2023-01-31T13:06:44.066Z,14.50
2023-01-31T13:11:52.466Z,12.00
2023-01-31T13:17:00.104Z,9.77
2023-01-31T13:22:06.829Z,7.80
2023-01-31T13:27:17.565Z,15.93
2023-01-31T13:32:26.376Z,12.40
2023-01-31T13:37:31.855Z,10.50
2023-01-31T13:42:35.333Z,8.87
2023-01-31T13:47:46.864Z,11.03
2023-01-31T13:52:53.540Z,11.07
2023-01-31T13:58:00.232Z,9.43
2023-01-31T14:03:06.507Z,12.13
2023-01-31T14:08:33.001Z,8.33
2023-01-31T14:13:41.668Z,11.67
2023-01-31T14:18:46.903Z,11.17
2023-01-31T14:23:49.557Z,9.27
2023-01-31T14:28:52.335Z,11.43
2023-01-31T14:33:57.438Z,16.10
2023-01-31T14:39:44.650Z,9.73
2023-01-31T14:45:00.091Z,8.20
2023-01-31T14:50:33.009Z,9.87
2023-01-31T14:55:47.537Z,9.63
2023-01-31T15:00:52.764Z,9.47
2023-01-31T15:06:06.808Z,11.00
2023-01-31T15:11:14.881Z,12.73
2023-01-31T15:16:22.079Z,10.27
2023-01-31T15:21:29.797Z,9.93
2023-01-31T15:26:35.550Z,11.77
2023-01-31T15:31:44.410Z,6.63
2023-01-31T15:36:59.556Z,10.13
2023-01-31T15:42:22.597Z,8.40
2023-01-31T15:47:25.301Z,8.90
2023-01-31T15:52:34.313Z,12.00
2023-01-31T15:57:41.830Z,7.43
2023-01-31T16:02:47.191Z,8.53
2023-01-31T16:07:51.250Z,6.83
2023-01-31T16:12:55.702Z,8.77
2023-01-31T16:18:02.056Z,6.60
2023-01-31T16:23:06.806Z,6.70
2023-01-31T16:28:13.313Z,6.93
2023-01-31T16:33:18.927Z,8.30
2023-01-31T16:38:27.475Z,4.60
2023-01-31T16:43:32.196Z,5.80
2023-01-31T16:48:37.144Z,5.47
2023-01-31T16:53:41.565Z,5.40
2023-01-31T16:58:46.453Z,5.60
2023-01-31T17:04:16.906Z,6.10
2023-01-31T17:09:23.307Z,6.30
2023-01-31T17:14:26.176Z,5.67
2023-01-31T17:19:30.889Z,5.30
2023-01-31T17:24:34.869Z,5.70
2023-01-31T17:29:37.652Z,6.40
2023-01-31T17:34:40.927Z,5.57
2023-01-31T17:39:44.940Z,6.13
2023-01-31T17:44:48.232Z,6.47
2023-01-31T17:49:50.906Z,5.03
2023-01-31T17:54:54.938Z,5.40
2023-01-31T17:59:57.636Z,2.90
2023-01-31T18:05:00.455Z,2.77
2023-01-31T18:10:06.085Z,3.90
2023-01-31T18:15:10.061Z,3.97
2023-01-31T18:20:12.936Z,4.70
2023-01-31T18:25:17.104Z,4.03
2023-01-31T18:30:20.287Z,4.47
2023-01-31T18:35:25.044Z,2.87
2023-01-31T18:40:29.556Z,4.00
2023-01-31T18:45:44.989Z,4.33
2023-01-31T18:51:15.879Z,3.83
2023-01-31T18:56:40.463Z,3.23
2023-01-31T19:02:09.856Z,4.13
2023-01-31T19:07:14.617Z,4.33
2023-01-31T19:12:25.574Z,2.97
2023-01-31T19:17:30.730Z,4.63
2023-01-31T19:22:36.140Z,3.20
2023-01-31T19:27:43.088Z,4.07
2023-01-31T19:32:45.953Z,2.00
2023-01-31T19:37:50.629Z,3.40
2023-01-31T19:43:01.788Z,4.30
2023-01-31T19:48:05.574Z,3.17
2023-01-31T19:53:08.818Z,2.67
2023-01-31T19:58:13.075Z,3.17
2023-01-31T20:03:16.305Z,3.70
2023-01-31T20:08:19.272Z,2.57
2023-01-31T20:13:28.387Z,3.00
2023-01-31T20:18:34.749Z,1.60
2023-01-31T20:23:40.084Z,4.20
2023-01-31T20:28:52.054Z,2.80
2023-01-31T20:34:05.563Z,2.70
2023-01-31T20:39:12.309Z,2.60
2023-01-31T20:44:30.232Z,4.37
2023-01-31T20:49:33.377Z,3.17
2023-01-31T20:54:36.033Z,2.70
2023-01-31T20:59:40.090Z,4.93
2023-01-31T21:04:42.840Z,3.43
2023-01-31T21:09:45.846Z,3.70
2023-01-31T21:14:49.861Z,2.63
2023-01-31T21:19:52.505Z,3.60
2023-01-31T21:24:55.174Z,5.03
2023-01-31T21:29:59.254Z,2.93
2023-01-31T21:35:03.385Z,6.03
2023-01-31T21:40:07.177Z,3.67
2023-01-31T21:45:12.211Z,3.80
2023-01-31T21:50:14.917Z,4.63
2023-01-31T21:55:17.715Z,4.40
2023-01-31T22:00:23.065Z,8.13
2023-01-31T22:05:26.022Z,3.83
2023-01-31T22:10:28.693Z,5.20
2023-01-31T22:15:32.663Z,4.17
2023-01-31T22:20:35.304Z,6.30
2023-01-31T22:25:38.186Z,4.90
2023-01-31T22:30:42.380Z,7.37
2023-01-31T22:35:45.101Z,7.73
2023-01-31T22:40:48.366Z,7.33
2023-01-31T22:45:54.672Z,9.40
2023-01-31T22:50:59.128Z,5.87
2023-01-31T22:56:02.651Z,8.43
2023-01-31T23:01:12.563Z,7.13
2023-01-31T23:06:16.609Z,12.37
2023-01-31T23:11:20.083Z,8.20
2023-01-31T23:16:46.687Z,9.37
2023-01-31T23:21:49.970Z,7.77
2023-01-31T23:26:54.349Z,8.83
2023-01-31T23:31:58.504Z,6.53
2023-01-31T23:37:01.178Z,11.90
2023-01-31T23:42:03.829Z,7.67
2023-01-31T23:47:08.059Z,6.13
2023-01-31T23:52:11.024Z,7.80
2023-01-31T23:57:13.734Z,10.70
